Impacts TAF Board
For situational awareness. Not to be used for flight planning purposes.
IDs:

KRSW - Ft Myers/SW Florida, FL, US

Issued at 1131 UTC 03 Dec 2021
Updated at 1706 UTC 03 Dec 2021
Potential Impact None Slight Moderate High
Time1653Z 03/18Z 03/19Z 03/20Z 03/21Z 03/22Z 03/23Z 04/00Z 04/01Z 04/02Z 04/03Z 04/04Z 04/05Z 04/06Z>>
Type OBS PRVL PRVL PRVL PRVL PRVL PRVL PRVL PRVL PRVL PRVL PRVL PRVL PRVL
VIS 10 >6 >6 >6 >6 >6 >6 >6 >6 >6 >6 >6 >6 >6
CIG -- -- -- -- -- -- -- -- -- -- -- -- -- --
Cover CLR FEW FEW FEW FEW FEW FEW FEW FEW FEW FEW FEW FEW FEW
FltCat VFR VFR VFR VFR VFR VFR VFR VFR VFR VFR VFR VFR VFR VFR
WX -- -- -- -- -- -- -- -- -- -- -- -- -- --
WDir 30 50 50 50 50 320 320 320 VRB VRB VRB VRB VRB VRB
WSpd 5 6 6 6 6 4 4 4 3 3 3 3 3 3
WGst -- -- -- -- -- -- -- -- -- -- -- -- -- --
WSHgt -- -- -- -- -- -- -- -- -- -- -- -- -- --
WSDir -- -- -- -- -- -- -- -- -- -- -- -- -- --
WSSpd -- -- -- -- -- -- -- -- -- -- -- -- -- --
Raw TAF
KRSW 031131Z 0312/0412 VRB03KT 6SM BR FEW250
  FM031400 05006KT P6SM FEW250
  FM032200 32004KT P6SM FEW250
  FM040100 VRB03KT P6SM FEW250


Raw METAR
KRSW 031653Z 03005KT 10SM CLR 23/11 A3014 RMK AO2 SLP203 T02280111
KRSW 031553Z 02006KT 10SM CLR 21/10 A3016 RMK AO2 SLP210 T02060100
KRSW 031453Z 03005KT 10SM CLR 19/11 A3016 RMK AO2 SLP210 T01940111 53016

METAR Board
Radar Display
Forecast Discussion
For situational awareness. Not to be used for flight planning purposes.